createdAt,value
2023-04-06T00:01:19.695Z,8.57
2023-04-06T00:03:46.375Z,8.90
2023-04-06T00:06:13.363Z,8.77
2023-04-06T00:08:40.746Z,9.23
2023-04-06T00:11:07.338Z,9.13
2023-04-06T00:13:34.022Z,8.35
2023-04-06T00:16:00.627Z,8.65
2023-04-06T00:18:27.703Z,9.02
2023-04-06T00:20:54.339Z,8.32
2023-04-06T00:23:21.224Z,8.50
2023-04-06T00:25:47.762Z,8.73
2023-04-06T00:28:14.362Z,8.57
2023-04-06T00:30:41.912Z,6.38
2023-04-06T00:33:08.514Z,8.82
2023-04-06T00:35:35.869Z,8.65
2023-04-06T00:40:29.606Z,8.60
2023-04-06T00:42:56.277Z,8.40
2023-04-06T00:45:22.828Z,9.00
2023-04-06T00:47:49.476Z,9.60
2023-04-06T00:50:16.089Z,9.50
2023-04-06T00:52:42.629Z,9.18
2023-04-06T00:55:09.420Z,9.07
2023-04-06T00:57:36.821Z,9.13
2023-04-06T01:02:30.956Z,8.55
2023-04-06T01:04:57.697Z,8.63
2023-04-06T01:07:25.590Z,8.73
2023-04-06T01:09:56.106Z,8.73
2023-04-06T01:12:22.901Z,8.80
2023-04-06T01:14:49.587Z,8.05
2023-04-06T01:17:16.391Z,7.95
2023-04-06T01:19:43.002Z,8.18
2023-04-06T01:22:09.576Z,6.20
2023-04-06T01:24:36.147Z,8.18
2023-04-06T01:27:02.776Z,8.15
2023-04-06T01:29:29.355Z,8.15
2023-04-06T01:31:56.321Z,6.35
2023-04-06T01:34:22.984Z,8.60
2023-04-06T01:36:49.621Z,8.18
2023-04-06T01:39:16.632Z,8.63
2023-04-06T01:41:43.342Z,10.13
2023-04-06T01:44:10.003Z,8.77
2023-04-06T01:46:36.631Z,7.18
2023-04-06T01:49:04.384Z,8.30
2023-04-06T01:51:31.180Z,8.35
2023-04-06T01:53:57.729Z,9.38
2023-04-06T01:56:24.429Z,8.80
2023-04-06T01:58:51.189Z,6.07
2023-04-06T02:01:17.865Z,6.00
2023-04-06T02:03:44.487Z,8.13
2023-04-06T02:06:11.126Z,6.10
2023-04-06T02:08:37.655Z,8.35
2023-04-06T02:11:04.334Z,8.10
2023-04-06T02:13:30.980Z,8.20
2023-04-06T02:15:58.198Z,8.75
2023-04-06T02:18:24.765Z,8.65
2023-04-06T02:20:51.307Z,7.88
2023-04-06T02:23:17.997Z,8.10
2023-04-06T02:25:44.591Z,8.77
2023-04-06T02:28:11.402Z,8.23
2023-04-06T02:30:37.975Z,8.05
2023-04-06T02:33:04.575Z,8.77
2023-04-06T02:35:31.915Z,9.20
2023-04-06T02:40:25.035Z,8.43
2023-04-06T02:42:51.649Z,8.35
2023-04-06T02:45:18.271Z,8.13
2023-04-06T02:47:44.916Z,9.05
2023-04-06T02:50:11.572Z,8.65
2023-04-06T02:52:38.164Z,6.60
2023-04-06T02:55:05.457Z,8.82
2023-04-06T02:57:32.066Z,9.00
2023-04-06T02:59:58.589Z,8.40
2023-04-06T03:02:25.219Z,7.87
2023-04-06T03:04:51.924Z,9.27
2023-04-06T03:07:18.507Z,7.43
2023-04-06T03:09:45.068Z,9.07
2023-04-06T03:12:11.614Z,8.77
2023-04-06T03:14:38.250Z,8.63
2023-04-06T03:17:04.819Z,8.70
2023-04-06T03:19:31.519Z,8.23
2023-04-06T03:21:58.096Z,7.13
2023-04-06T03:24:24.730Z,6.18
2023-04-06T03:26:51.338Z,6.32
2023-04-06T03:29:17.910Z,9.02
2023-04-06T03:31:44.815Z,9.05
2023-04-06T03:34:11.603Z,8.32
2023-04-06T03:36:38.302Z,8.05
2023-04-06T03:39:05.266Z,8.20
2023-04-06T03:41:32.279Z,8.40
2023-04-06T03:43:58.859Z,7.72
2023-04-06T03:46:25.745Z,6.00
2023-04-06T03:48:52.325Z,7.82
2023-04-06T03:51:18.882Z,7.45
2023-04-06T03:53:45.465Z,7.50
2023-04-06T03:56:12.060Z,7.47
2023-04-06T03:58:38.634Z,7.53
2023-04-06T04:01:05.438Z,7.70
2023-04-06T04:03:32.115Z,7.50
2023-04-06T04:05:58.817Z,7.40
2023-04-06T04:08:26.062Z,7.72
2023-04-06T04:10:52.685Z,8.80
2023-04-06T04:13:19.643Z,8.50
2023-04-06T04:15:46.257Z,8.60
2023-04-06T04:18:12.808Z,8.10
2023-04-06T04:20:39.630Z,8.48
2023-04-06T04:23:06.169Z,7.65
2023-04-06T04:25:32.739Z,8.07
2023-04-06T04:27:59.339Z,7.78
2023-04-06T04:30:26.081Z,8.27
2023-04-06T04:32:52.767Z,8.57
2023-04-06T04:35:19.438Z,7.88
2023-04-06T04:37:46.150Z,5.95
2023-04-06T04:40:12.930Z,8.55
2023-04-06T04:42:39.532Z,5.25
2023-04-06T04:45:06.464Z,7.90
2023-04-06T04:47:33.080Z,8.10
2023-04-06T04:49:59.673Z,6.57
2023-04-06T04:52:26.271Z,7.97
2023-04-06T04:54:52.928Z,8.45
2023-04-06T04:57:19.533Z,8.32
2023-04-06T04:59:46.369Z,8.10
2023-04-06T05:02:13.056Z,7.43
2023-04-06T05:04:39.729Z,8.38
2023-04-06T05:07:10.377Z,7.93
2023-04-06T05:09:37.029Z,8.15
2023-04-06T05:12:03.803Z,7.80
2023-04-06T05:14:30.747Z,7.88
2023-04-06T05:16:57.340Z,7.72
2023-04-06T05:19:23.995Z,8.10
2023-04-06T05:21:50.957Z,6.05
2023-04-06T05:24:17.701Z,7.45
2023-04-06T05:26:44.394Z,8.00
2023-04-06T05:29:11.985Z,8.50
2023-04-06T05:31:38.840Z,7.95
2023-04-06T05:34:05.785Z,7.88
2023-04-06T05:36:33.232Z,7.82
2023-04-06T05:39:00.114Z,14.00
2023-04-06T05:41:27.262Z,10.85
2023-04-06T05:43:53.874Z,9.05
2023-04-06T05:46:21.024Z,6.32
2023-04-06T05:48:47.806Z,7.90
2023-04-06T05:51:14.372Z,8.45
2023-04-06T05:53:40.994Z,9.02
2023-04-06T05:56:07.683Z,10.82
2023-04-06T05:58:34.231Z,9.77
2023-04-06T06:01:02.027Z,7.50
2023-04-06T06:03:28.669Z,8.73
2023-04-06T06:05:55.388Z,7.78
2023-04-06T06:08:22.026Z,6.80
2023-04-06T06:10:48.652Z,6.70
2023-04-06T06:13:15.569Z,6.47
2023-04-06T06:15:42.312Z,6.07
2023-04-06T06:18:08.942Z,6.43
2023-04-06T06:20:35.731Z,5.82
2023-04-06T06:23:02.271Z,5.60
2023-04-06T06:25:31.704Z,5.77
2023-04-06T06:27:59.502Z,5.70
2023-04-06T06:30:27.115Z,5.35
2023-04-06T06:32:53.733Z,5.68
2023-04-06T06:35:20.394Z,5.50
2023-04-06T06:37:46.930Z,5.68
2023-04-06T06:40:14.384Z,5.70
2023-04-06T06:42:41.125Z,5.88
2023-04-06T06:45:08.820Z,6.20
2023-04-06T06:47:35.489Z,6.10
2023-04-06T06:50:03.939Z,9.60
2023-04-06T06:52:30.684Z,7.25
2023-04-06T06:54:57.919Z,7.85
2023-04-06T06:57:24.705Z,6.32
2023-04-06T06:59:51.295Z,7.53
2023-04-06T07:02:17.859Z,5.93
2023-04-06T07:04:44.494Z,5.70
2023-04-06T07:07:11.260Z,6.03
2023-04-06T07:09:37.872Z,5.35
2023-04-06T07:12:04.606Z,5.82
2023-04-06T07:14:31.200Z,5.75
2023-04-06T07:16:57.847Z,5.25
2023-04-06T07:19:24.476Z,5.28
2023-04-06T07:21:51.067Z,5.90
2023-04-06T07:24:17.657Z,5.93
2023-04-06T07:26:44.479Z,6.35
2023-04-06T07:29:11.159Z,6.30
2023-04-06T07:31:37.895Z,5.97
2023-04-06T07:34:04.467Z,5.38
2023-04-06T07:36:31.058Z,5.50
2023-04-06T07:38:57.629Z,5.97
2023-04-06T07:41:25.053Z,5.93
2023-04-06T07:46:18.143Z,5.00
2023-04-06T07:48:44.763Z,6.40
2023-04-06T07:51:15.199Z,5.40
2023-04-06T07:53:41.797Z,6.72
2023-04-06T07:56:08.486Z,4.50
2023-04-06T07:58:35.580Z,5.00
2023-04-06T08:01:02.785Z,5.03
2023-04-06T08:03:29.542Z,5.20
2023-04-06T08:05:56.353Z,5.30
2023-04-06T08:08:23.561Z,5.45
2023-04-06T08:10:50.188Z,6.13
2023-04-06T08:13:17.367Z,6.70
2023-04-06T08:15:44.248Z,7.38
2023-04-06T08:18:11.087Z,5.32
2023-04-06T08:20:37.773Z,5.85
2023-04-06T08:23:04.473Z,4.93
2023-04-06T08:25:31.097Z,4.78
2023-04-06T08:27:57.632Z,4.88
2023-04-06T08:30:24.261Z,5.20
2023-04-06T08:32:51.161Z,5.63
2023-04-06T08:35:18.076Z,5.13
2023-04-06T08:37:44.736Z,5.20
2023-04-06T08:40:12.228Z,4.73
2023-04-06T08:45:12.182Z,5.20
2023-04-06T08:47:38.824Z,4.97
2023-04-06T08:50:06.042Z,4.90
2023-04-06T08:52:34.107Z,6.05
2023-04-06T08:55:01.488Z,5.65
2023-04-06T08:59:56.681Z,5.07
2023-04-06T09:02:23.633Z,5.47
2023-04-06T09:04:54.001Z,4.93
2023-04-06T09:07:21.205Z,5.38
2023-04-06T09:09:52.561Z,5.60
2023-04-06T09:12:29.990Z,5.28
2023-04-06T09:14:58.102Z,6.50
2023-04-06T09:17:26.632Z,4.78
2023-04-06T09:19:53.686Z,4.60
2023-04-06T09:22:21.070Z,5.30
2023-04-06T09:27:16.327Z,4.80
2023-04-06T09:29:43.722Z,5.35
2023-04-06T09:34:44.276Z,6.18
2023-04-06T09:37:18.982Z,5.72
2023-04-06T09:39:47.351Z,5.60
2023-04-06T09:42:26.381Z,5.10
2023-04-06T09:44:53.050Z,5.28
2023-04-06T09:47:21.048Z,5.18
2023-04-06T09:49:51.058Z,5.30
2023-04-06T09:52:19.223Z,5.97
2023-04-06T09:54:51.140Z,7.10
2023-04-06T09:57:33.010Z,5.72
2023-04-06T10:00:12.236Z,6.30
2023-04-06T10:03:13.169Z,5.65
2023-04-06T10:05:56.153Z,5.88
2023-04-06T10:08:26.418Z,5.00
2023-04-06T10:10:53.564Z,4.70
2023-04-06T10:13:20.680Z,5.15
2023-04-06T10:15:48.031Z,6.00
2023-04-06T10:21:14.039Z,4.85
2023-04-06T10:23:50.314Z,4.70
2023-04-06T10:26:21.710Z,5.07
2023-04-06T10:28:50.026Z,5.32
2023-04-06T10:31:25.045Z,5.07
2023-04-06T10:33:56.699Z,5.68
2023-04-06T10:36:27.898Z,4.75
2023-04-06T10:39:00.297Z,10.38
2023-04-06T10:41:41.761Z,6.93
2023-04-06T10:44:08.501Z,5.40
2023-04-06T10:46:35.418Z,4.93
2023-04-06T10:49:15.766Z,4.32
2023-04-06T10:51:42.443Z,5.38
2023-04-06T10:54:10.450Z,5.10
2023-04-06T10:56:39.823Z,5.72
2023-04-06T10:59:07.275Z,5.65
2023-04-06T11:04:00.623Z,5.22
2023-04-06T11:06:29.971Z,6.65
2023-04-06T11:08:57.439Z,6.40
2023-04-06T11:13:55.673Z,5.60
2023-04-06T11:16:27.733Z,5.72
2023-04-06T11:18:54.376Z,6.80
2023-04-06T11:21:32.156Z,6.65
2023-04-06T11:24:13.274Z,5.93
2023-04-06T11:26:41.585Z,5.95
2023-04-06T11:29:08.491Z,6.75
2023-04-06T11:31:43.352Z,5.90
2023-04-06T11:34:20.954Z,6.35
2023-04-06T11:36:50.088Z,6.50
2023-04-06T11:39:21.921Z,6.57
2023-04-06T11:41:50.211Z,7.25
2023-04-06T11:44:17.128Z,6.40
2023-04-06T11:46:53.314Z,6.82
2023-04-06T11:49:20.015Z,6.53
2023-04-06T11:51:47.438Z,6.78
2023-04-06T11:56:40.830Z,6.28
2023-04-06T11:59:07.507Z,6.32
2023-04-06T12:04:21.773Z,5.93
2023-04-06T12:06:49.418Z,6.00
2023-04-06T12:09:18.491Z,7.10
2023-04-06T12:11:45.724Z,6.28
2023-04-06T12:14:12.661Z,6.93
2023-04-06T12:16:39.992Z,6.68
2023-04-06T12:19:06.974Z,6.70
2023-04-06T12:21:36.360Z,7.10
2023-04-06T12:24:03.009Z,6.13
2023-04-06T12:26:29.631Z,5.63
2023-04-06T12:28:56.714Z,6.57
2023-04-06T12:31:24.276Z,6.45
2023-04-06T12:33:51.730Z,6.38
2023-04-06T12:38:49.848Z,6.90
2023-04-06T12:41:16.934Z,6.90
2023-04-06T12:43:44.717Z,9.80
2023-04-06T12:46:12.199Z,7.40
2023-04-06T12:51:06.941Z,7.15
2023-04-06T12:53:34.783Z,6.60
2023-04-06T12:56:02.251Z,8.02
2023-04-06T13:03:23.780Z,6.82
2023-04-06T13:05:51.918Z,9.13
2023-04-06T13:08:20.643Z,7.47
2023-04-06T13:10:53.058Z,7.28
2023-04-06T13:13:24.366Z,7.60
2023-04-06T13:15:52.018Z,7.85
2023-04-06T13:18:18.680Z,7.78
2023-04-06T13:20:45.545Z,7.47
2023-04-06T13:23:12.367Z,8.52
2023-04-06T13:25:38.949Z,7.10
2023-04-06T13:28:05.514Z,9.17
2023-04-06T13:30:32.385Z,8.00
2023-04-06T13:32:59.118Z,8.38
2023-04-06T13:35:25.673Z,8.07
2023-04-06T13:37:53.270Z,9.07
2023-04-06T13:40:20.665Z,8.98
2023-04-06T13:45:14.689Z,8.15
2023-04-06T13:47:41.423Z,8.68
2023-04-06T13:50:08.540Z,8.40
2023-04-06T13:52:37.138Z,8.63
2023-04-06T13:55:04.021Z,9.65
2023-04-06T13:57:31.081Z,8.60
2023-04-06T13:59:57.676Z,8.98
2023-04-06T14:02:28.420Z,8.63
2023-04-06T14:04:55.604Z,8.05
2023-04-06T14:07:24.501Z,8.90
2023-04-06T14:09:51.591Z,9.00
2023-04-06T14:12:18.214Z,8.23
2023-04-06T14:14:44.829Z,8.55
2023-04-06T14:17:11.600Z,9.05
2023-04-06T14:19:38.727Z,8.57
2023-04-06T14:22:05.737Z,8.45
2023-04-06T14:24:32.528Z,8.40
2023-04-06T14:26:59.134Z,8.73
2023-04-06T14:29:25.827Z,8.23
2023-04-06T14:31:52.430Z,8.77
2023-04-06T14:34:19.206Z,8.77
2023-04-06T14:36:45.872Z,8.10
2023-04-06T14:39:12.557Z,9.45
2023-04-06T14:41:39.158Z,8.23
2023-04-06T14:44:06.652Z,6.82
2023-04-06T14:46:33.886Z,9.00
2023-04-06T14:49:00.444Z,8.73
2023-04-06T14:51:30.472Z,6.80
2023-04-06T14:53:57.817Z,8.05
2023-04-06T15:01:21.576Z,7.60
2023-04-06T15:03:48.540Z,8.10
2023-04-06T15:06:16.509Z,8.80
2023-04-06T15:08:44.079Z,7.57
2023-04-06T15:11:11.249Z,8.43
2023-04-06T15:13:38.913Z,8.73
2023-04-06T15:16:06.796Z,8.35
2023-04-06T15:18:34.825Z,8.40
2023-04-06T15:21:01.637Z,8.80
2023-04-06T15:23:31.603Z,7.60
2023-04-06T15:25:58.806Z,7.85
2023-04-06T15:28:25.417Z,8.73
2023-04-06T15:30:52.571Z,8.90
2023-04-06T15:33:21.198Z,9.13
2023-04-06T15:35:47.929Z,8.85
2023-04-06T15:38:14.767Z,8.05
2023-04-06T15:40:46.296Z,8.88
2023-04-06T15:43:13.603Z,7.65
2023-04-06T15:45:41.846Z,7.93
2023-04-06T15:48:09.170Z,8.07
2023-04-06T15:50:36.612Z,7.38
2023-04-06T15:55:29.856Z,7.97
2023-04-06T15:57:56.426Z,8.33
2023-04-06T16:00:23.243Z,7.47
2023-04-06T16:02:50.025Z,7.85
2023-04-06T16:05:16.889Z,7.38
2023-04-06T16:07:43.692Z,7.60
2023-04-06T16:10:10.781Z,7.85
2023-04-06T16:12:37.533Z,8.23
2023-04-06T16:15:04.576Z,8.13
2023-04-06T16:17:31.680Z,7.82
2023-04-06T16:19:58.309Z,7.97
2023-04-06T16:22:24.876Z,8.65
2023-04-06T16:24:51.481Z,9.05
2023-04-06T16:27:18.089Z,9.13
2023-04-06T16:29:44.748Z,9.40
2023-04-06T16:32:12.345Z,8.88
2023-04-06T16:34:39.050Z,9.07
2023-04-06T16:37:05.830Z,8.97
2023-04-06T16:39:32.485Z,9.40
2023-04-06T16:41:59.464Z,11.75
2023-04-06T16:44:27.372Z,11.60
2023-04-06T16:46:53.966Z,11.98
2023-04-06T16:49:20.935Z,8.93
2023-04-06T16:51:49.650Z,11.40
2023-04-06T16:54:16.785Z,9.93
2023-04-06T16:56:43.396Z,9.20
2023-04-06T16:59:10.076Z,10.13
2023-04-06T17:01:36.914Z,10.13
2023-04-06T17:04:03.788Z,10.27
2023-04-06T17:06:31.310Z,8.98
2023-04-06T17:08:59.745Z,10.52
2023-04-06T17:11:32.947Z,9.88
2023-04-06T17:14:10.300Z,10.05
2023-04-06T17:16:36.990Z,10.35
2023-04-06T17:19:03.645Z,10.00
2023-04-06T17:21:30.952Z,9.70
2023-04-06T17:23:57.531Z,10.40
2023-04-06T17:26:24.077Z,11.85
2023-04-06T17:28:50.668Z,11.23
2023-04-06T17:31:17.402Z,11.53
2023-04-06T17:33:44.376Z,13.88
2023-04-06T17:36:12.481Z,12.65
2023-04-06T17:38:43.573Z,14.95
2023-04-06T17:41:12.030Z,11.90
2023-04-06T17:43:38.899Z,13.45
2023-04-06T17:46:06.014Z,18.42
2023-04-06T17:48:32.658Z,11.23
2023-04-06T17:50:59.243Z,12.73
2023-04-06T17:53:26.273Z,12.48
2023-04-06T17:55:53.066Z,12.48
2023-04-06T17:58:19.637Z,11.50
2023-04-06T18:00:46.351Z,12.40
2023-04-06T18:03:12.993Z,12.23
2023-04-06T18:05:39.829Z,12.40
2023-04-06T18:08:06.456Z,13.45
2023-04-06T18:10:38.102Z,15.55
2023-04-06T18:13:04.744Z,15.50
2023-04-06T18:15:31.482Z,14.57
2023-04-06T18:17:58.141Z,11.80
2023-04-06T18:20:24.766Z,14.63
2023-04-06T18:22:51.530Z,10.98
2023-04-06T18:25:18.813Z,10.77
2023-04-06T18:27:45.524Z,10.32
2023-04-06T18:30:14.114Z,10.70
2023-04-06T18:32:40.873Z,10.88
2023-04-06T18:35:09.336Z,15.13
2023-04-06T18:37:36.430Z,10.88
2023-04-06T18:40:04.165Z,12.18
2023-04-06T18:42:30.727Z,10.80
2023-04-06T18:44:57.304Z,12.23
2023-04-06T18:47:23.878Z,9.20
2023-04-06T18:49:50.469Z,10.98
2023-04-06T18:52:17.017Z,10.60
2023-04-06T18:54:43.638Z,8.03
2023-04-06T18:57:11.317Z,9.80
2023-04-06T18:59:37.842Z,10.38
2023-04-06T19:02:04.516Z,10.30
2023-04-06T19:04:31.365Z,10.23
2023-04-06T19:06:58.097Z,10.55
2023-04-06T19:09:24.735Z,10.18
2023-04-06T19:11:51.473Z,10.75
2023-04-06T19:14:18.147Z,10.48
2023-04-06T19:16:52.213Z,9.98
2023-04-06T19:19:19.696Z,10.95
2023-04-06T19:21:46.740Z,10.38
2023-04-06T19:24:13.456Z,10.02
2023-04-06T19:26:40.095Z,11.02
2023-04-06T19:29:06.697Z,10.52
2023-04-06T19:31:33.309Z,10.50
2023-04-06T19:33:59.924Z,8.32
2023-04-06T19:36:26.647Z,10.25
2023-04-06T19:38:53.306Z,8.52
2023-04-06T19:41:20.046Z,10.85
2023-04-06T19:43:46.620Z,14.10
2023-04-06T19:46:15.472Z,13.67
2023-04-06T19:48:42.369Z,11.13
2023-04-06T19:51:09.085Z,11.38
2023-04-06T19:53:36.666Z,11.68
2023-04-06T19:56:03.305Z,12.27
2023-04-06T19:58:29.945Z,12.18
2023-04-06T20:00:56.589Z,11.60
2023-04-06T20:03:23.301Z,11.23
2023-04-06T20:05:49.976Z,11.25
2023-04-06T20:08:16.549Z,12.98
2023-04-06T20:10:43.176Z,11.68
2023-04-06T20:13:09.842Z,12.32
2023-04-06T20:15:36.458Z,11.50
2023-04-06T20:18:03.121Z,11.45
2023-04-06T20:20:29.846Z,10.52
2023-04-06T20:22:56.486Z,11.30
2023-04-06T20:25:23.283Z,10.85
2023-04-06T20:27:53.115Z,8.38
2023-04-06T20:30:19.756Z,10.80
2023-04-06T20:32:46.372Z,11.65
2023-04-06T20:35:13.073Z,7.70
2023-04-06T20:37:39.667Z,10.75
2023-04-06T20:40:06.872Z,11.27
2023-04-06T20:42:34.418Z,11.07
2023-04-06T20:45:02.518Z,10.88
2023-04-06T20:47:29.432Z,10.88
2023-04-06T20:49:56.049Z,10.88
2023-04-06T20:52:23.037Z,11.53
2023-04-06T20:54:50.734Z,10.65
2023-04-06T20:57:17.313Z,10.80
2023-04-06T20:59:45.186Z,10.77
2023-04-06T21:02:12.055Z,10.63
2023-04-06T21:04:38.897Z,10.15
2023-04-06T21:07:06.418Z,14.65
2023-04-06T21:09:40.062Z,9.98
2023-04-06T21:12:07.142Z,9.63
2023-04-06T21:14:34.171Z,9.35
2023-04-06T21:17:00.880Z,10.48
2023-04-06T21:19:30.023Z,9.52
2023-04-06T21:21:56.710Z,9.85
2023-04-06T21:24:23.378Z,10.30
2023-04-06T21:26:50.051Z,7.38
2023-04-06T21:29:16.698Z,10.13
2023-04-06T21:31:43.377Z,10.45
2023-04-06T21:34:14.296Z,7.00
2023-04-06T21:36:41.738Z,9.82
2023-04-06T21:39:08.904Z,10.00
2023-04-06T21:41:35.711Z,10.13
2023-04-06T21:44:02.420Z,9.65
2023-04-06T21:46:29.082Z,9.98
2023-04-06T21:48:55.932Z,9.23
2023-04-06T21:51:23.498Z,9.75
2023-04-06T21:53:51.676Z,9.07
2023-04-06T21:56:23.075Z,9.63
2023-04-06T21:58:51.315Z,9.50
2023-04-06T22:01:18.813Z,10.02
2023-04-06T22:03:46.568Z,9.13
2023-04-06T22:06:13.475Z,9.68
2023-04-06T22:08:40.124Z,6.88
2023-04-06T22:11:09.309Z,9.07
2023-04-06T22:13:36.478Z,9.10
2023-04-06T22:16:04.052Z,9.32
2023-04-06T22:18:31.233Z,9.93
2023-04-06T22:20:58.027Z,9.13
2023-04-06T22:23:24.861Z,9.48
2023-04-06T22:25:52.491Z,9.88
2023-04-06T22:28:19.075Z,9.13
2023-04-06T22:30:45.742Z,9.15
2023-04-06T22:33:12.418Z,9.43
2023-04-06T22:35:39.076Z,9.13
2023-04-06T22:38:05.711Z,9.65
2023-04-06T22:40:32.343Z,9.48
2023-04-06T22:42:58.921Z,9.02
2023-04-06T22:45:26.418Z,8.70
2023-04-06T22:47:53.245Z,9.15
2023-04-06T22:50:19.981Z,9.40
2023-04-06T22:52:46.517Z,9.45
2023-04-06T22:55:13.145Z,7.60
2023-04-06T22:57:39.707Z,9.95
2023-04-06T23:00:06.952Z,9.75
2023-04-06T23:02:33.699Z,9.93
2023-04-06T23:05:00.782Z,9.18
2023-04-06T23:07:27.314Z,9.25
2023-04-06T23:09:53.816Z,9.40
2023-04-06T23:12:20.380Z,9.47
2023-04-06T23:14:46.961Z,10.00
2023-04-06T23:17:15.081Z,12.25
2023-04-06T23:19:41.832Z,10.35
2023-04-06T23:22:08.514Z,10.73
2023-04-06T23:24:35.482Z,11.05
2023-04-06T23:27:02.066Z,9.93
2023-04-06T23:29:28.629Z,11.53
2023-04-06T23:31:55.459Z,13.18
2023-04-06T23:34:22.057Z,11.57
2023-04-06T23:36:48.889Z,11.75
2023-04-06T23:39:15.775Z,13.18
2023-04-06T23:41:43.153Z,12.65
2023-04-06T23:46:36.390Z,12.93
2023-04-06T23:49:03.060Z,10.35
2023-04-06T23:51:29.602Z,10.30
2023-04-06T23:53:56.338Z,10.13
2023-04-06T23:56:22.953Z,11.05
2023-04-06T23:58:49.565Z,8.80
